Time;durP1;ratioP1;P1;durP2;ratioP2;P2;SDS_P1;SDS_P2;PMS_P1;PMS_P2;Temp;Humidity;BMP_temperature;BMP_pressure;BME280_temperature;BME280_humidity;BME280_pressure;Samples;Min_cycle;Max_cycle;Signal;HPM_P1;HPM_P2
2023/09/10 00:01:44;;;;;;;48.10;20.40;;;16.20;99.90;;;;;;5012900;28;20218;-84
2023/09/10 00:04:10;;;;;;;41.60;21.37;;;16.30;99.90;;;;;;4997411;28;20223;-84
2023/09/10 00:06:36;;;;;;;64.07;20.20;;;16.30;99.90;;;;;;5013771;28;20280;-84
2023/09/10 00:09:03;;;;;;;41.23;21.57;;;16.30;99.90;;;;;;5029887;28;20210;-84
2023/09/10 00:11:29;;;;;;;82.10;21.53;;;16.20;99.90;;;;;;5014359;28;20191;-84
2023/09/10 00:13:55;;;;;;;67.00;21.63;;;16.30;99.90;;;;;;5030053;28;20217;-84
2023/09/10 00:16:20;;;;;;;140.47;23.93;;;16.30;99.90;;;;;;5013540;28;20622;-84
2023/09/10 00:18:46;;;;;;;58.90;22.13;;;16.40;99.90;;;;;;5013299;28;20222;-84
2023/09/10 00:21:13;;;;;;;136.73;24.27;;;16.30;99.90;;;;;;5013634;28;20202;-84
2023/09/10 00:23:38;;;;;;;96.93;24.23;;;16.30;99.90;;;;;;5030297;28;20659;-84
2023/09/10 00:26:04;;;;;;;56.87;22.17;;;16.30;99.90;;;;;;5013137;28;20226;-83
2023/09/10 00:28:30;;;;;;;95.63;23.30;;;16.30;99.90;;;;;;5012785;28;20218;-83
2023/09/10 00:30:56;;;;;;;78.03;20.77;;;16.20;99.90;;;;;;5013441;28;20215;-83
2023/09/10 00:33:22;;;;;;;71.97;20.07;;;16.20;99.90;;;;;;5013351;28;20946;-84
2023/09/10 00:35:47;;;;;;;95.33;22.67;;;16.10;99.90;;;;;;5029609;28;20190;-83
2023/09/10 00:38:13;;;;;;;42.83;18.83;;;16.10;99.90;;;;;;5013657;28;20686;-83
2023/09/10 00:40:39;;;;;;;71.87;20.40;;;16.10;99.90;;;;;;5029270;28;20268;-83
2023/09/10 00:43:05;;;;;;;40.00;18.73;;;16.10;99.90;;;;;;5013017;28;20222;-84
2023/09/10 00:45:31;;;;;;;66.97;22.97;;;16.10;99.90;;;;;;5013468;28;20313;-85
2023/09/10 00:47:57;;;;;;;39.00;21.17;;;16.10;99.90;;;;;;5012917;28;20206;-84
2023/09/10 00:50:23;;;;;;;35.23;19.10;;;16.10;99.90;;;;;;5012706;28;20201;-84
2023/09/10 00:52:54;;;;;;;26.53;19.60;;;16.20;99.90;;;;;;5027457;28;20227;-84
2023/09/10 00:55:22;;;;;;;49.47;22.00;;;16.20;99.90;;;;;;5025991;28;20218;-84
2023/09/10 00:57:48;;;;;;;28.23;19.30;;;16.10;99.90;;;;;;5011107;28;20687;-84
2023/09/10 01:00:14;;;;;;;54.27;21.07;;;16.10;99.90;;;;;;5011623;28;20242;-84
2023/09/10 01:02:44;;;;;;;51.50;20.63;;;16.00;99.90;;;;;;5029256;28;20209;-84
2023/09/10 01:05:15;;;;;;;103.60;24.27;;;15.90;99.90;;;;;;5012708;28;20274;-84
2023/09/10 01:07:41;;;;;;;26.37;19.97;;;15.80;99.90;;;;;;5025266;28;20229;-84
2023/09/10 01:10:08;;;;;;;24.50;18.20;;;15.80;99.90;;;;;;5010552;28;20214;-84
2023/09/10 01:13:00;;;;;;;31.43;18.73;;;15.70;99.90;;;;;;5028735;28;20226;-84
2023/09/10 01:15:31;;;;;;;32.73;19.37;;;15.60;99.90;;;;;;5030579;28;20245;-84
2023/09/10 01:18:08;;;;;;;62.77;19.47;;;15.60;99.90;;;;;;5030447;28;20276;-84
2023/09/10 01:20:52;;;;;;;73.70;20.40;;;15.60;99.90;;;;;;5029162;28;20244;-83
2023/09/10 01:23:36;;;;;;;58.10;21.00;;;15.70;99.90;;;;;;5029572;28;20187;-84
2023/09/10 01:26:02;;;;;;;57.60;21.00;;;15.60;99.90;;;;;;5028221;28;20221;-84
2023/09/10 01:28:28;;;;;;;56.87;23.27;;;15.60;99.90;;;;;;5045214;28;20237;-84
2023/09/10 01:30:54;;;;;;;38.47;21.63;;;15.60;99.90;;;;;;5030384;28;20699;-84
2023/09/10 01:33:35;;;;;;;28.13;19.73;;;15.60;99.90;;;;;;5028895;28;20218;-83
2023/09/10 01:36:07;;;;;;;34.93;19.50;;;15.60;99.90;;;;;;5028874;28;20736;-83
2023/09/10 01:38:53;;;;;;;38.37;19.20;;;15.70;99.90;;;;;;5026729;28;20198;-84
2023/09/10 01:41:20;;;;;;;32.33;20.70;;;15.80;99.90;;;;;;5028989;28;20174;-84
2023/09/10 01:43:48;;;;;;;36.90;18.90;;;15.70;99.90;;;;;;5012280;28;20340;-84
2023/09/10 01:46:15;;;;;;;26.00;18.43;;;15.70;99.90;;;;;;5027889;28;20214;-85
2023/09/10 01:48:42;;;;;;;29.83;19.60;;;15.70;99.90;;;;;;5012918;28;20346;-84
2023/09/10 01:51:08;;;;;;;33.80;20.43;;;15.90;99.90;;;;;;5013015;28;21190;-84
2023/09/10 01:53:33;;;;;;;34.90;23.20;;;16.00;99.90;;;;;;5009107;28;20210;-84
2023/09/10 01:55:59;;;;;;;36.57;23.37;;;16.10;99.90;;;;;;5009637;28;20185;-85
2023/09/10 01:58:25;;;;;;;31.37;21.87;;;16.10;99.90;;;;;;5010575;28;20272;-84
2023/09/10 02:00:51;;;;;;;34.23;21.57;;;16.10;99.90;;;;;;5012991;28;20691;-85
2023/09/10 02:03:17;;;;;;;35.60;20.43;;;16.10;99.90;;;;;;5028941;28;20289;-85
2023/09/10 02:05:43;;;;;;;93.07;24.37;;;16.10;99.90;;;;;;5012202;28;21037;-85
2023/09/10 02:08:09;;;;;;;189.23;25.40;;;16.10;99.90;;;;;;5029474;28;20181;-84
2023/09/10 02:10:35;;;;;;;42.53;21.67;;;15.90;99.90;;;;;;5011968;28;20288;-85
2023/09/10 02:13:02;;;;;;;56.87;22.63;;;15.80;99.90;;;;;;5011363;28;20246;-85
2023/09/10 02:15:29;;;;;;;27.03;18.80;;;15.70;99.90;;;;;;5028506;28;20264;-85
2023/09/10 02:17:56;;;;;;;27.77;19.50;;;15.70;99.90;;;;;;5028444;28;20222;-85
2023/09/10 02:20:22;;;;;;;27.60;20.00;;;15.80;99.90;;;;;;5013533;28;20206;-85
2023/09/10 02:22:48;;;;;;;24.07;18.93;;;15.90;99.90;;;;;;5012422;28;20555;-85
2023/09/10 02:25:14;;;;;;;27.67;19.10;;;15.90;99.90;;;;;;5012332;28;20222;-85
2023/09/10 02:27:39;;;;;;;26.60;19.23;;;16.00;99.90;;;;;;5013071;28;20221;-84
2023/09/10 02:30:07;;;;;;;24.37;17.97;;;16.00;99.90;;;;;;5028600;28;20264;-85
2023/09/10 02:32:34;;;;;;;28.97;20.03;;;16.00;99.90;;;;;;5028000;28;20199;-85
2023/09/10 02:35:00;;;;;;;32.80;20.47;;;16.30;99.90;;;;;;5012738;28;20183;-85
2023/09/10 02:37:26;;;;;;;34.93;21.87;;;16.40;99.90;;;;;;5011868;28;20217;-85
2023/09/10 02:39:52;;;;;;;37.77;22.33;;;16.40;99.90;;;;;;5030610;28;20219;-85
2023/09/10 02:42:17;;;;;;;33.10;19.30;;;16.30;99.90;;;;;;5015716;28;20241;-85
2023/09/10 02:44:43;;;;;;;27.40;19.20;;;16.10;99.90;;;;;;5032602;28;20193;-85
2023/09/10 02:47:09;;;;;;;26.50;20.00;;;16.00;99.90;;;;;;5048557;28;20273;-83
2023/09/10 02:49:35;;;;;;;28.53;19.67;;;16.00;99.90;;;;;;5031890;28;20297;-84
2023/09/10 02:52:01;;;;;;;28.43;18.93;;;15.90;99.90;;;;;;5013549;28;20258;-84
2023/09/10 02:54:28;;;;;;;25.83;17.63;;;15.90;99.90;;;;;;5011458;28;20236;-84
2023/09/10 02:56:54;;;;;;;42.43;19.33;;;15.70;99.90;;;;;;5046055;28;20344;-84
2023/09/10 02:59:25;;;;;;;62.30;18.67;;;15.50;99.90;;;;;;5016116;28;20232;-84
2023/09/10 03:01:52;;;;;;;41.57;17.40;;;15.30;99.90;;;;;;5031316;28;20218;-84
2023/09/10 03:04:19;;;;;;;56.80;17.53;;;15.20;99.90;;;;;;5048314;28;20368;-84
2023/09/10 03:06:49;;;;;;;30.20;16.30;;;15.10;99.90;;;;;;5032333;28;20215;-84
2023/09/10 03:09:15;;;;;;;24.50;16.10;;;15.00;99.90;;;;;;5031572;28;20215;-84
2023/09/10 03:11:42;;;;;;;22.80;16.40;;;15.10;99.90;;;;;;5031393;28;20187;-84
2023/09/10 03:14:09;;;;;;;21.93;15.23;;;15.20;99.90;;;;;;5015104;28;20179;-84
2023/09/10 03:16:40;;;;;;;28.90;18.80;;;15.30;99.90;;;;;;5014704;28;20576;-84
2023/09/10 03:19:06;;;;;;;25.90;17.77;;;15.30;99.90;;;;;;5030742;28;20234;-84
2023/09/10 03:21:32;;;;;;;27.17;17.83;;;15.40;99.90;;;;;;5032259;28;20582;-84
2023/09/10 03:23:58;;;;;;;38.07;20.63;;;15.40;99.90;;;;;;5014467;28;20207;-84
2023/09/10 03:26:24;;;;;;;50.30;17.13;;;15.30;99.90;;;;;;5012198;28;20237;-84
2023/09/10 03:28:49;;;;;;;27.33;17.47;;;15.20;99.90;;;;;;4994130;28;20211;-84
2023/09/10 03:31:15;;;;;;;25.37;18.77;;;15.20;99.90;;;;;;5029849;28;20215;-84
2023/09/10 03:33:41;;;;;;;24.17;18.43;;;15.20;99.90;;;;;;5030898;28;20616;-83
2023/09/10 03:36:09;;;;;;;68.50;18.10;;;15.20;99.90;;;;;;5014156;28;20287;-84
2023/09/10 03:38:35;;;;;;;32.00;18.63;;;15.20;99.90;;;;;;5031038;28;21095;-84
2023/09/10 03:41:01;;;;;;;28.13;17.83;;;15.30;99.90;;;;;;5014931;28;20190;-84
2023/09/10 03:43:27;;;;;;;24.87;18.93;;;15.30;99.90;;;;;;5014396;28;20221;-84
2023/09/10 03:45:52;;;;;;;43.87;17.27;;;15.40;99.90;;;;;;5014139;28;20244;-84
2023/09/10 03:48:18;;;;;;;38.47;18.00;;;15.40;99.90;;;;;;5030515;28;20219;-84
2023/09/10 03:50:44;;;;;;;58.50;19.00;;;15.50;99.90;;;;;;5013329;28;20239;-84
2023/09/10 03:53:09;;;;;;;79.07;20.20;;;15.50;99.90;;;;;;5027857;28;20215;-84
2023/09/10 03:55:35;;;;;;;37.40;17.77;;;15.50;99.90;;;;;;5010161;28;20219;-84
2023/09/10 03:58:01;;;;;;;63.73;19.37;;;15.50;99.90;;;;;;5010101;28;20210;-84
2023/09/10 04:00:27;;;;;;;30.47;18.80;;;15.40;99.90;;;;;;5010326;28;20210;-84
2023/09/10 04:02:53;;;;;;;89.03;20.57;;;15.50;99.90;;;;;;5029484;28;20225;-84
2023/09/10 04:05:19;;;;;;;28.00;18.60;;;15.40;99.90;;;;;;4997600;28;20538;-84
2023/09/10 04:07:44;;;;;;;42.20;16.27;;;15.50;99.90;;;;;;5013471;28;20268;-83
2023/09/10 04:10:10;;;;;;;59.10;18.10;;;15.50;99.90;;;;;;5013452;28;20250;-84
2023/09/10 04:12:37;;;;;;;19.33;15.03;;;15.50;99.90;;;;;;5013919;28;20222;-83
2023/09/10 04:15:04;;;;;;;23.33;17.03;;;15.50;99.90;;;;;;5013308;28;20234;-84
2023/09/10 04:17:30;;;;;;;26.73;17.37;;;15.60;99.90;;;;;;5013960;28;20554;-84
2023/09/10 04:19:57;;;;;;;25.07;17.10;;;15.70;99.90;;;;;;4994873;28;20276;-84
2023/09/10 04:22:23;;;;;;;24.90;17.07;;;15.70;99.90;;;;;;5025946;28;20206;-84
2023/09/10 04:24:49;;;;;;;24.37;17.17;;;15.80;99.90;;;;;;5011713;28;20838;-84
2023/09/10 04:27:15;;;;;;;25.33;17.97;;;15.80;99.90;;;;;;5013962;28;20241;-84
2023/09/10 04:29:41;;;;;;;25.93;17.70;;;15.70;99.90;;;;;;5029447;28;20195;-84
2023/09/10 04:32:07;;;;;;;28.50;18.90;;;15.60;99.90;;;;;;5009725;28;20241;-84
2023/09/10 04:34:32;;;;;;;26.57;18.67;;;15.60;99.90;;;;;;5027085;28;20218;-84
2023/09/10 04:36:58;;;;;;;24.40;18.33;;;15.60;99.90;;;;;;5013415;28;20720;-84
2023/09/10 04:39:24;;;;;;;29.63;19.97;;;15.70;99.90;;;;;;5029638;28;20275;-84
2023/09/10 04:41:50;;;;;;;31.30;21.23;;;15.80;99.90;;;;;;5012684;28;20294;-84
2023/09/10 04:44:16;;;;;;;35.70;20.67;;;16.10;99.90;;;;;;5013250;28;20286;-84
2023/09/10 04:46:42;;;;;;;34.07;20.87;;;16.50;99.90;;;;;;5013041;28;20211;-84
2023/09/10 04:49:08;;;;;;;38.17;22.90;;;16.70;99.90;;;;;;5012771;28;20281;-84
2023/09/10 04:51:34;;;;;;;40.70;23.57;;;16.80;99.90;;;;;;4996523;28;20288;-84
2023/09/10 04:53:59;;;;;;;31.10;20.03;;;16.80;99.90;;;;;;5009446;28;20635;-84
2023/09/10 04:56:25;;;;;;;34.40;20.40;;;16.70;99.90;;;;;;5009799;28;20741;-84
2023/09/10 04:58:51;;;;;;;31.13;21.47;;;16.60;99.90;;;;;;5013094;28;20241;-84
2023/09/10 05:01:17;;;;;;;34.97;20.23;;;16.50;99.90;;;;;;5028884;28;20226;-84
2023/09/10 05:03:43;;;;;;;31.67;20.33;;;16.40;99.90;;;;;;5028913;28;20636;-84
2023/09/10 05:06:10;;;;;;;41.77;19.23;;;16.30;99.90;;;;;;5012057;28;20230;-84
2023/09/10 05:08:36;;;;;;;33.10;18.33;;;16.20;99.90;;;;;;5028264;28;20203;-85
2023/09/10 05:11:02;;;;;;;24.67;16.50;;;16.00;99.90;;;;;;5029721;28;20185;-84
2023/09/10 05:13:28;;;;;;;23.73;17.20;;;15.80;99.90;;;;;;5029421;28;20230;-84
2023/09/10 05:15:54;;;;;;;19.73;15.97;;;15.50;99.90;;;;;;5009690;28;20696;-85
2023/09/10 05:18:29;;;;;;;22.03;14.77;;;15.40;99.90;;;;;;5010829;28;20241;-84
2023/09/10 05:20:55;;;;;;;22.90;15.97;;;15.30;99.90;;;;;;5029272;28;20702;-85
2023/09/10 05:23:22;;;;;;;23.53;17.43;;;15.40;99.90;;;;;;5030134;28;20191;-84
2023/09/10 05:25:49;;;;;;;32.47;17.83;;;15.50;99.90;;;;;;5028064;28;20240;-84
2023/09/10 05:28:15;;;;;;;39.20;19.20;;;15.50;99.90;;;;;;5013121;28;20309;-85
2023/09/10 05:30:41;;;;;;;29.57;19.47;;;15.60;99.90;;;;;;5010492;28;20653;-85
2023/09/10 05:33:07;;;;;;;31.43;19.43;;;15.80;99.90;;;;;;5009136;28;20284;-84
2023/09/10 05:35:33;;;;;;;33.73;17.57;;;15.90;99.90;;;;;;5026405;28;20199;-84
2023/09/10 05:37:58;;;;;;;38.70;18.90;;;16.00;99.90;;;;;;5013264;28;20193;-84
2023/09/10 05:40:25;;;;;;;30.07;15.70;;;15.90;99.90;;;;;;5012213;28;20226;-84
2023/09/10 05:42:51;;;;;;;21.63;17.00;;;15.80;99.90;;;;;;5029631;28;20230;-85
2023/09/10 05:45:17;;;;;;;25.50;17.00;;;15.80;99.90;;;;;;5029459;28;20699;-84
2023/09/10 05:47:43;;;;;;;23.00;14.50;;;15.80;99.90;;;;;;5012298;28;20191;-85
2023/09/10 05:50:09;;;;;;;27.93;16.53;;;16.00;99.90;;;;;;5012685;28;20213;-84
2023/09/10 05:52:35;;;;;;;25.20;17.13;;;16.20;99.90;;;;;;5009738;28;20752;-83
2023/09/10 05:55:01;;;;;;;26.47;17.87;;;16.40;99.90;;;;;;5024474;28;20234;-85
2023/09/10 05:57:27;;;;;;;29.83;18.53;;;16.80;99.90;;;;;;5024742;28;20221;-84
2023/09/10 05:59:53;;;;;;;27.40;19.23;;;16.90;99.90;;;;;;5011983;28;20207;-84
2023/09/10 06:02:19;;;;;;;31.13;20.27;;;16.90;99.90;;;;;;5012431;28;20190;-83
2023/09/10 06:04:44;;;;;;;23.93;16.77;;;17.20;99.90;;;;;;5012310;28;20210;-83
2023/09/10 06:07:10;;;;;;;24.93;18.47;;;17.30;99.90;;;;;;5011687;28;21010;-83
2023/09/10 06:09:36;;;;;;;28.13;19.70;;;17.40;99.90;;;;;;5011997;28;20211;-83
2023/09/10 06:12:05;;;;;;;26.70;19.33;;;17.60;99.90;;;;;;5012164;28;20247;-83
2023/09/10 06:14:33;;;;;;;32.87;19.93;;;17.80;99.90;;;;;;5016029;28;20179;-83
2023/09/10 06:16:59;;;;;;;31.57;19.27;;;17.90;99.90;;;;;;5015837;28;20171;-83
2023/09/10 06:19:25;;;;;;;27.37;19.40;;;18.00;99.90;;;;;;5015159;28;20207;-83
2023/09/10 06:21:51;;;;;;;25.27;18.47;;;18.00;99.90;;;;;;5015401;28;20582;-83
2023/09/10 06:24:17;;;;;;;31.73;19.33;;;18.10;99.90;;;;;;5015515;28;20249;-83
2023/09/10 06:26:43;;;;;;;31.70;19.87;;;18.40;99.90;;;;;;5031386;28;20634;-84
2023/09/10 06:29:08;;;;;;;37.20;23.77;;;18.70;99.90;;;;;;5015625;28;20190;-83
2023/09/10 06:31:34;;;;;;;30.33;20.10;;;18.80;99.90;;;;;;5015047;28;20230;-83
2023/09/10 06:34:00;;;;;;;34.63;21.87;;;19.00;99.90;;;;;;4998361;28;20260;-84
2023/09/10 06:36:26;;;;;;;37.43;22.00;;;19.10;99.90;;;;;;5015521;28;20211;-84
2023/09/10 06:38:52;;;;;;;34.70;21.90;;;19.20;99.90;;;;;;5031722;28;20241;-83
2023/09/10 06:41:18;;;;;;;36.53;24.10;;;19.30;99.90;;;;;;5015688;28;20191;-83
2023/09/10 06:43:44;;;;;;;38.07;26.50;;;19.70;99.90;;;;;;5014644;28;20229;-83
2023/09/10 06:46:10;;;;;;;35.47;24.67;;;20.50;99.90;;;;;;5031335;28;20214;-83
2023/09/10 06:48:36;;;;;;;31.77;22.70;;;20.90;99.90;;;;;;5031763;28;20360;-84
2023/09/10 06:51:02;;;;;;;30.33;21.73;;;21.60;99.90;;;;;;5014816;28;20310;-83
2023/09/10 06:53:29;;;;;;;32.30;21.50;;;22.60;99.90;;;;;;5012472;28;20214;-86
2023/09/10 06:55:57;;;;;;;23.20;16.40;;;23.30;99.90;;;;;;5029754;28;20203;-84
2023/09/10 06:58:23;;;;;;;24.50;18.02;;;23.90;99.90;;;;;;5031027;28;20224;-83
2023/09/10 07:00:49;;;;;;;25.67;18.10;;;24.10;99.90;;;;;;5014945;28;20215;-84
2023/09/10 07:03:15;;;;;;;25.65;16.88;;;24.00;99.90;;;;;;5014569;28;20583;-84
2023/09/10 07:05:42;;;;;;;22.40;16.38;;;24.10;99.90;;;;;;5015171;28;20639;-83
2023/09/10 07:08:08;;;;;;;21.83;16.33;;;24.50;99.90;;;;;;5031992;28;20175;-84
2023/09/10 07:10:35;;;;;;;22.98;15.82;;;24.90;99.90;;;;;;5014550;28;20213;-83
2023/09/10 07:13:05;;;;;;;23.45;16.75;;;25.10;99.90;;;;;;5030816;28;20211;-85
2023/09/10 07:15:32;;;;;;;25.20;16.23;;;25.60;99.90;;;;;;5029961;28;20198;-83
2023/09/10 07:17:57;;;;;;;20.25;16.63;;;25.80;99.90;;;;;;5030956;28;20663;-84
2023/09/10 07:20:23;;;;;;;19.85;15.68;;;26.50;99.90;;;;;;5030692;28;20208;-84
2023/09/10 07:22:49;;;;;;;22.55;15.55;;;26.60;99.90;;;;;;5030000;28;20207;-84
2023/09/10 07:25:15;;;;;;;22.27;15.90;;;26.50;99.90;;;;;;5029805;28;20317;-84
2023/09/10 07:27:41;;;;;;;21.95;14.63;;;27.10;99.90;;;;;;5031295;28;20241;-84
2023/09/10 07:30:07;;;;;;;20.85;15.88;;;27.00;99.90;;;;;;5014395;28;20629;-84
2023/09/10 07:32:32;;;;;;;24.77;15.95;;;27.40;99.90;;;;;;5013834;28;20234;-85
2023/09/10 07:34:58;;;;;;;19.63;15.07;;;27.30;99.90;;;;;;5030951;28;20186;-85
2023/09/10 07:37:24;;;;;;;22.67;15.35;;;27.00;99.90;;;;;;5030590;28;20582;-84
2023/09/10 07:39:50;;;;;;;21.60;15.20;;;26.80;99.90;;;;;;5014273;28;20211;-83
2023/09/10 07:42:16;;;;;;;21.10;15.68;;;27.20;99.90;;;;;;5030588;28;20265;-82
2023/09/10 07:44:42;;;;;;;21.67;15.45;;;28.00;99.90;;;;;;5014709;28;20195;-83
2023/09/10 07:47:11;;;;;;;23.70;15.55;;;28.30;99.90;;;;;;5014767;28;21006;-83
2023/09/10 07:49:36;;;;;;;23.15;16.27;;;27.70;99.90;;;;;;5014115;28;20582;-83
2023/09/10 07:52:04;;;;;;;20.05;15.55;;;27.20;99.90;;;;;;5029420;28;20227;-84
2023/09/10 07:54:31;;;;;;;22.75;15.70;;;27.80;99.90;;;;;;5010383;28;20207;-84
2023/09/10 07:56:57;;;;;;;19.27;15.50;;;27.70;99.90;;;;;;5010600;28;20215;-84
2023/09/10 07:59:23;;;;;;;22.63;16.40;;;28.30;99.90;;;;;;5029885;28;20229;-84
2023/09/10 08:01:49;;;;;;;23.50;15.95;;;28.50;99.90;;;;;;5030051;28;20219;-83
2023/09/10 08:04:15;;;;;;;26.85;15.73;;;29.30;99.90;;;;;;5014086;28;20210;-83
2023/09/10 08:06:41;;;;;;;21.13;15.73;;;29.20;99.90;;;;;;5013522;28;20679;-83
2023/09/10 08:09:07;;;;;;;19.25;15.05;;;28.20;99.90;;;;;;5029066;28;20272;-83
2023/09/10 08:11:33;;;;;;;20.40;15.18;;;28.10;99.90;;;;;;5012638;28;20659;-84
2023/09/10 08:13:59;;;;;;;21.52;14.38;;;28.30;99.90;;;;;;5014132;28;20243;-84
2023/09/10 08:16:25;;;;;;;18.10;15.63;;;28.10;99.90;;;;;;5013641;28;20648;-83
2023/09/10 08:18:51;;;;;;;24.75;14.32;;;28.10;99.90;;;;;;5012179;28;20432;-83
2023/09/10 08:21:16;;;;;;;20.40;15.02;;;28.10;99.90;;;;;;5013735;28;20206;-83
2023/09/10 08:23:43;;;;;;;20.10;14.73;;;28.00;99.90;;;;;;5013149;28;20190;-84
2023/09/10 08:26:09;;;;;;;26.05;16.00;;;28.00;99.90;;;;;;5013874;28;20226;-83
2023/09/10 08:28:35;;;;;;;18.38;14.57;;;28.80;99.90;;;;;;5013291;28;20249;-83
2023/09/10 08:31:01;;;;;;;19.52;14.45;;;28.90;99.90;;;;;;5029231;28;20229;-84
2023/09/10 08:33:26;;;;;;;22.10;14.75;;;28.70;99.90;;;;;;5029538;28;20226;-84
2023/09/10 08:35:54;;;;;;;20.45;14.82;;;29.40;99.90;;;;;;5013483;28;20218;-83
2023/09/10 08:38:21;;;;;;;15.85;12.20;;;29.20;99.90;;;;;;5030746;28;20286;-83
2023/09/10 08:40:58;;;;;;;17.20;13.68;;;29.20;99.90;;;;;;5012851;28;20298;-84
2023/09/10 08:43:43;;;;;;;15.38;12.60;;;29.50;99.90;;;;;;5029671;28;20245;-83
2023/09/10 08:46:10;;;;;;;19.08;13.02;;;29.80;99.90;;;;;;5029880;28;20242;-83
2023/09/10 08:48:43;;;;;;;16.17;11.73;;;30.70;99.90;;;;;;5029638;28;20218;-83
2023/09/10 08:51:11;;;;;;;17.27;12.88;;;29.40;99.90;;;;;;5030424;28;20253;-84
2023/09/10 08:53:40;;;;;;;17.38;13.30;;;28.40;99.90;;;;;;5026004;28;20297;-85
2023/09/10 08:56:07;;;;;;;15.10;11.60;;;28.40;99.90;;;;;;5025995;28;20183;-84
2023/09/10 08:58:37;;;;;;;16.30;12.07;;;28.60;99.90;;;;;;5026876;28;20206;-83
2023/09/10 09:01:04;;;;;;;15.45;11.10;;;29.50;99.90;;;;;;5028371;28;20206;-84
2023/09/10 09:03:30;;;;;;;16.10;12.25;;;29.20;99.90;;;;;;5028841;28;20199;-83
2023/09/10 09:06:03;;;;;;;15.45;12.52;;;29.70;99.90;;;;;;5012767;28;20229;-83
2023/09/10 09:08:31;;;;;;;17.38;10.48;;;30.90;99.90;;;;;;5013614;28;20174;-83
2023/09/10 09:11:03;;;;;;;13.68;11.15;;;29.50;99.90;;;;;;5029947;28;20210;-83
2023/09/10 09:13:33;;;;;;;16.17;11.00;;;28.20;99.90;;;;;;5044507;28;20305;-83
2023/09/10 09:16:00;;;;;;;13.57;10.77;;;28.60;99.90;;;;;;5045283;28;20582;-83
2023/09/10 09:18:28;;;;;;;13.20;10.55;;;29.80;99.90;;;;;;5029129;28;20211;-83
2023/09/10 09:20:59;;;;;;;15.27;11.27;;;29.30;99.90;;;;;;5028144;28;20290;-83
2023/09/10 09:23:30;;;;;;;14.18;11.25;;;29.80;99.90;;;;;;5030813;28;20651;-83
2023/09/10 09:25:57;;;;;;;15.65;11.63;;;29.30;99.90;;;;;;5029850;28;20239;-83
2023/09/10 09:28:25;;;;;;;13.25;10.55;;;29.50;99.90;;;;;;5044747;28;20741;-83
2023/09/10 09:30:54;;;;;;;13.85;10.77;;;28.90;99.90;;;;;;5030262;28;20218;-84
2023/09/10 09:33:19;;;;;;;16.58;11.55;;;29.20;99.90;;;;;;5012945;28;20230;-83
2023/09/10 09:35:46;;;;;;;12.85;10.18;;;28.80;99.90;;;;;;5012116;28;20187;-83
2023/09/10 09:38:13;;;;;;;13.30;10.30;;;29.70;99.90;;;;;;5029865;28;20280;-83
2023/09/10 09:40:39;;;;;;;12.18;10.68;;;30.10;99.90;;;;;;5012169;28;20218;-83
2023/09/10 09:43:10;;;;;;;12.75;10.65;;;30.00;99.90;;;;;;5011659;28;20583;-83
2023/09/10 09:45:36;;;;;;;11.85;10.07;;;30.20;99.90;;;;;;5028594;28;20237;-82
2023/09/10 09:48:03;;;;;;;15.00;11.18;;;30.70;99.90;;;;;;5030715;28;20237;-83
2023/09/10 09:50:30;;;;;;;16.20;11.02;;;30.90;99.90;;;;;;5015593;28;20265;-83
2023/09/10 09:52:56;;;;;;;13.55;11.02;;;29.80;99.90;;;;;;5030205;28;20222;-84
2023/09/10 09:55:22;;;;;;;15.00;10.73;;;29.90;99.90;;;;;;5012566;28;20237;-84
2023/09/10 09:57:51;;;;;;;13.52;9.60;;;30.80;99.90;;;;;;5015183;28;20214;-82
2023/09/10 10:00:18;;;;;;;13.45;9.93;;;30.30;99.90;;;;;;5016278;28;20207;-83
2023/09/10 10:02:44;;;;;;;16.80;10.65;;;30.00;99.90;;;;;;5033923;28;20210;-83
2023/09/10 10:05:12;;;;;;;14.50;11.10;;;29.70;99.90;;;;;;5033178;28;20670;-83
2023/09/10 10:07:40;;;;;;;11.93;9.88;;;29.60;99.90;;;;;;5032095;28;20207;-83
2023/09/10 10:10:08;;;;;;;12.90;10.23;;;29.40;99.90;;;;;;5016067;28;20271;-83
2023/09/10 10:12:34;;;;;;;15.52;9.48;;;29.20;99.90;;;;;;5031590;28;20257;-83
2023/09/10 10:15:00;;;;;;;12.30;10.20;;;29.30;99.90;;;;;;5032458;28;20703;-83
2023/09/10 10:17:27;;;;;;;14.98;9.70;;;28.60;99.90;;;;;;5016631;28;20186;-83
2023/09/10 10:19:54;;;;;;;11.02;8.95;;;28.60;99.90;;;;;;5015877;28;20210;-82
2023/09/10 10:22:22;;;;;;;10.23;8.07;;;28.80;99.90;;;;;;5016017;28;20364;-82
2023/09/10 10:24:49;;;;;;;11.32;8.95;;;28.60;99.90;;;;;;5031868;28;20246;-82
2023/09/10 10:27:16;;;;;;;10.45;9.35;;;28.60;99.90;;;;;;5032534;28;20210;-82
2023/09/10 10:29:42;;;;;;;8.85;7.57;;;29.20;99.90;;;;;;5032080;28;20198;-82
2023/09/10 10:32:38;;;;;;;9.15;7.43;;;29.30;99.90;;;;;;5032696;28;20213;-82
2023/09/10 10:35:06;;;;;;;9.43;8.10;;;28.70;99.90;;;;;;5032226;28;20229;-82
2023/09/10 10:37:44;;;;;;;8.93;8.05;;;28.30;99.90;;;;;;5015472;28;20221;-82
2023/09/10 10:40:30;;;;;;;8.43;7.03;;;29.30;99.90;;;;;;5032194;28;20217;-82
2023/09/10 10:43:15;;;;;;;13.18;7.35;;;30.50;99.90;;;;;;5032237;28;20229;-82
2023/09/10 10:45:43;;;;;;;9.85;7.90;;;29.80;99.90;;;;;;5031700;28;20582;-82
2023/09/10 10:48:18;;;;;;;9.35;8.10;;;29.30;99.90;;;;;;4999305;28;20687;-81
2023/09/10 10:50:46;;;;;;;8.90;7.65;;;29.20;99.90;;;;;;5031403;28;20206;-82
2023/09/10 10:53:23;;;;;;;10.68;7.32;;;29.60;99.90;;;;;;5029027;28;20221;-82
2023/09/10 10:55:51;;;;;;;9.68;7.05;;;29.30;99.90;;;;;;5044021;28;20206;-82
2023/09/10 10:58:19;;;;;;;8.48;7.60;;;30.00;99.90;;;;;;5030539;28;20221;-82
2023/09/10 11:00:51;;;;;;;10.88;7.47;;;30.00;99.90;;;;;;5030925;28;20210;-82
2023/09/10 11:03:18;;;;;;;8.73;7.82;;;30.60;99.90;;;;;;5030935;28;20219;-82
2023/09/10 11:05:57;;;;;;;7.82;6.60;;;30.10;99.90;;;;;;5031119;28;20194;-82
2023/09/10 11:08:30;;;;;;;8.70;7.30;;;30.60;99.90;;;;;;5047087;28;20193;-81
2023/09/10 11:10:58;;;;;;;8.32;7.38;;;31.00;99.90;;;;;;5015406;28;20223;-81
2023/09/10 11:13:24;;;;;;;8.00;7.05;;;30.40;99.90;;;;;;4997585;28;20260;-81
2023/09/10 11:16:05;;;;;;;9.82;7.18;;;29.70;99.90;;;;;;5030847;28;20717;-81
2023/09/10 11:18:36;;;;;;;10.18;6.85;;;29.30;99.90;;;;;;5032069;28;20789;-82
2023/09/10 11:21:07;;;;;;;10.77;7.28;;;29.40;99.90;;;;;;5030488;28;20690;-81
2023/09/10 11:23:34;;;;;;;13.77;6.60;;;29.30;99.90;;;;;;5030729;28;20178;-81
2023/09/10 11:26:12;;;;;;;7.32;6.60;;;29.60;99.90;;;;;;5031960;28;20234;-82
2023/09/10 11:28:49;;;;;;;10.82;7.07;;;29.70;99.90;;;;;;5047106;28;20717;-81
2023/09/10 11:31:33;;;;;;;7.97;7.05;;;29.30;99.90;;;;;;5046563;28;20264;-81
2023/09/10 11:34:17;;;;;;;9.95;6.22;;;29.30;99.90;;;;;;5030827;28;20310;-81
2023/09/10 11:36:44;;;;;;;8.73;7.40;;;29.40;99.90;;;;;;5046982;28;20230;-81
2023/09/10 11:39:11;;;;;;;7.50;6.80;;;29.80;99.90;;;;;;5046350;28;20219;-81
2023/09/10 11:41:37;;;;;;;9.20;6.60;;;30.30;99.90;;;;;;5014439;28;20627;-82
2023/09/10 11:44:02;;;;;;;7.03;6.32;;;29.70;99.90;;;;;;5015015;28;20171;-81
2023/09/10 11:46:28;;;;;;;8.38;6.22;;;29.70;99.90;;;;;;5031288;28;20202;-81
2023/09/10 11:48:54;;;;;;;7.95;6.32;;;30.00;99.90;;;;;;5013823;28;20222;-81
2023/09/10 11:51:20;;;;;;;9.25;6.13;;;29.90;99.90;;;;;;5012467;28;20580;-81
2023/09/10 11:53:46;;;;;;;8.00;7.20;;;28.90;99.90;;;;;;5006218;28;20214;-82
2023/09/10 11:56:12;;;;;;;7.50;6.40;;;28.70;99.90;;;;;;5026345;28;20194;-81
2023/09/10 11:58:38;;;;;;;8.00;6.05;;;28.70;99.90;;;;;;5029156;28;20246;-81
2023/09/10 12:01:18;;;;;;;6.93;6.30;;;28.50;99.90;;;;;;4981026;28;20605;-81
2023/09/10 12:04:08;;;;;;;10.10;7.00;;;28.60;99.90;;;;;;5025659;28;20219;-82
2023/09/10 12:06:34;;;;;;;11.80;6.63;;;28.70;99.90;;;;;;5014228;28;20275;-81
2023/09/10 12:09:00;;;;;;;15.40;6.35;;;28.90;99.90;;;;;;5019066;28;20648;-82
2023/09/10 12:11:51;;;;;;;6.97;6.28;;;29.30;99.90;;;;;;5013273;28;20660;-83
2023/09/10 12:14:28;;;;;;;7.97;6.10;;;29.20;99.90;;;;;;5032115;28;20635;-81
2023/09/10 12:16:54;;;;;;;8.75;6.05;;;29.30;99.90;;;;;;5020116;28;20207;-81
2023/09/10 12:19:20;;;;;;;7.72;6.53;;;29.60;99.90;;;;;;5028921;28;20206;-82
2023/09/10 12:21:52;;;;;;;8.98;6.78;;;29.90;99.90;;;;;;5011910;28;20233;-82
2023/09/10 12:24:18;;;;;;;7.88;6.70;;;29.50;99.90;;;;;;4997957;28;20202;-82
2023/09/10 12:26:44;;;;;;;13.63;6.65;;;29.20;99.90;;;;;;5027699;28;20230;-82
2023/09/10 12:29:22;;;;;;;20.30;6.85;;;29.20;99.90;;;;;;4997497;28;20269;-83
2023/09/10 12:31:56;;;;;;;8.00;6.47;;;29.00;99.90;;;;;;5028493;28;20213;-82
2023/09/10 12:34:31;;;;;;;9.98;6.93;;;29.00;99.90;;;;;;5012887;28;20229;-82